Time;durP1;ratioP1;P1;durP2;ratioP2;P2;SDS_P1;SDS_P2;PMS_P1;PMS_P2;Temp;Humidity;BMP_temperature;BMP_pressure;BME280_temperature;BME280_humidity;BME280_pressure;Samples;Min_cycle;Max_cycle;Signal;HPM_P1;HPM_P2
2023/03/11 00:01:51;;;;;;;0.30;0.30;;;;;;;2.15;78.15;100070.41;5159627;28;20034;-79
2023/03/11 00:04:21;;;;;;;0.60;0.60;;;;;;;1.98;77.74;100072.19;5173133;28;20041;-80
2023/03/11 00:06:51;;;;;;;0.30;0.30;;;;;;;2.14;77.76;100079.03;5141807;28;20041;-82
2023/03/11 00:09:22;;;;;;;0.73;0.73;;;;;;;1.98;78.16;100078.22;5141680;28;20687;-79
2023/03/11 00:11:52;;;;;;;0.63;0.63;;;;;;;1.99;77.49;100079.06;5160102;28;20094;-81
2023/03/11 00:14:23;;;;;;;0.30;0.30;;;;;;;1.98;78.58;100079.94;5172289;28;20046;-79
2023/03/11 00:16:53;;;;;;;0.30;0.30;;;;;;;2.07;78.48;100081.66;5142375;28;20054;-80
2023/03/11 00:19:24;;;;;;;0.30;0.30;;;;;;;2.08;77.72;100089.41;5130454;28;20027;-81
2023/03/11 00:21:54;;;;;;;0.40;0.40;;;;;;;2.05;77.26;100089.41;5154678;28;20086;-80
2023/03/11 00:24:25;;;;;;;0.40;0.40;;;;;;;2.08;77.41;100104.94;5127794;28;20026;-80
2023/03/11 00:26:55;;;;;;;4.55;1.60;;;;;;;1.94;77.18;100099.78;5128429;28;20038;-80
2023/03/11 00:29:26;;;;;;;1.30;1.30;;;;;;;1.89;77.49;100097.19;5129061;28;20058;-80
2023/03/11 00:31:56;;;;;;;0.40;0.40;;;;;;;1.63;78.48;100097.25;5143578;28;20042;-80
2023/03/11 00:34:27;;;;;;;0.40;0.40;;;;;;;1.79;77.88;100090.31;5147506;28;20027;-80
2023/03/11 00:36:57;;;;;;;0.30;0.30;;;;;;;2.00;77.30;100104.94;5129621;28;20039;-80
2023/03/11 00:39:28;;;;;;;0.35;0.35;;;;;;;1.80;77.41;100104.97;5148875;28;20509;-79
2023/03/11 00:41:59;;;;;;;0.35;0.35;;;;;;;1.78;77.34;100101.53;5148312;28;20698;-79
2023/03/11 00:44:29;;;;;;;0.52;0.52;;;;;;;1.76;77.66;100107.56;5127802;28;20722;-79
2023/03/11 00:46:59;;;;;;;0.60;0.60;;;;;;;1.81;77.05;100111.03;5126460;28;20081;-79
2023/03/11 00:49:30;;;;;;;0.47;0.47;;;;;;;1.68;77.51;100108.44;5136881;28;20018;-80
2023/03/11 00:52:01;;;;;;;0.50;0.50;;;;;;;1.87;77.40;100113.59;5128970;28;20110;-80
2023/03/11 00:54:31;;;;;;;0.40;0.40;;;;;;;1.83;77.50;100119.63;5129902;28;20026;-80
2023/03/11 00:57:02;;;;;;;1.15;1.15;;;;;;;1.94;77.49;100117.91;5126035;28;20055;-80
2023/03/11 00:59:34;;;;;;;0.40;0.40;;;;;;;2.14;77.91;100127.38;5139349;28;20117;-79
2023/03/11 01:02:04;;;;;;;0.50;0.50;;;;;;;2.23;77.49;100129.06;5130726;28;20030;-80
2023/03/11 01:04:35;;;;;;;0.47;0.47;;;;;;;1.98;77.39;100124.81;5132108;28;20085;-80
2023/03/11 01:07:05;;;;;;;0.40;0.40;;;;;;;2.19;76.90;100123.88;5127582;28;20457;-79
2023/03/11 01:09:35;;;;;;;0.30;0.30;;;;;;;2.08;77.16;100128.22;5142829;28;20594;-79
2023/03/11 01:12:06;;;;;;;0.40;0.40;;;;;;;2.18;77.29;100127.34;5159497;28;20125;-80
2023/03/11 01:14:36;;;;;;;0.40;0.40;;;;;;;2.38;77.54;100130.75;5156485;28;20030;-79
2023/03/11 01:17:07;;;;;;;0.30;0.30;;;;;;;2.41;76.92;100135.91;5125210;28;20038;-80
2023/03/11 01:19:37;;;;;;;0.60;0.60;;;;;;;2.28;76.43;100127.31;5128896;28;20019;-80
2023/03/11 01:22:08;;;;;;;0.30;0.30;;;;;;;2.30;76.92;100133.34;5146635;28;20128;-79
2023/03/11 01:24:39;;;;;;;0.30;0.30;;;;;;;2.35;76.88;100129.88;5167149;28;20038;-79
2023/03/11 01:27:09;;;;;;;2.63;1.40;;;;;;;2.48;77.23;100142.81;5142299;28;20049;-79
2023/03/11 01:29:40;;;;;;;0.45;0.45;;;;;;;2.57;76.40;100144.50;5173916;28;20034;-80
2023/03/11 01:32:11;;;;;;;0.35;0.35;;;;;;;2.36;75.69;100141.09;5137448;28;20093;-80
2023/03/11 01:34:41;;;;;;;0.30;0.30;;;;;;;2.46;76.43;100140.22;5146587;28;20029;-80
2023/03/11 01:37:11;;;;;;;0.30;0.30;;;;;;;2.57;76.18;100144.50;5137905;28;20026;-80
2023/03/11 01:39:42;;;;;;;0.30;0.30;;;;;;;2.43;75.83;100152.31;5130152;28;20026;-80
2023/03/11 01:42:13;;;;;;;0.30;0.30;;;;;;;2.54;76.04;100145.38;5145499;28;20029;-80
2023/03/11 01:44:43;;;;;;;0.68;0.68;;;;;;;2.51;75.77;100154.03;5162434;28;20093;-80
2023/03/11 01:47:13;;;;;;;0.50;0.50;;;;;;;2.48;75.92;100153.19;5145239;28;20062;-79
2023/03/11 01:49:44;;;;;;;0.40;0.40;;;;;;;2.46;75.03;100160.94;5127033;28;20098;-80
2023/03/11 01:52:14;;;;;;;0.73;0.73;;;;;;;2.41;76.02;100154.91;5145607;28;20045;-79
2023/03/11 01:54:45;;;;;;;0.30;0.30;;;;;;;2.43;75.26;100160.97;5124900;28;20030;-79
2023/03/11 01:57:15;;;;;;;0.40;0.40;;;;;;;2.29;74.49;100166.16;5157516;28;20099;-79
2023/03/11 01:59:50;;;;;;;0.40;0.40;;;;;;;2.26;74.85;100170.47;5161220;28;20030;-80
2023/03/11 02:02:23;;;;;;;0.30;0.30;;;;;;;2.22;74.54;100164.44;5151003;28;20240;-78
2023/03/11 02:04:54;;;;;;;0.87;0.87;;;;;;;2.09;74.33;100173.97;5161004;28;20125;-80
2023/03/11 02:07:25;;;;;;;0.30;0.30;;;;;;;2.26;74.76;100162.72;5162658;28;20145;-80
2023/03/11 02:09:55;;;;;;;0.40;0.40;;;;;;;2.16;74.41;100178.25;5127602;28;20051;-80
2023/03/11 02:12:29;;;;;;;1.00;1.00;;;;;;;2.19;74.80;100174.78;5162503;28;20039;-80
2023/03/11 02:15:01;;;;;;;0.40;0.40;;;;;;;2.14;73.90;100169.63;5146720;28;20113;-80
2023/03/11 02:17:33;;;;;;;0.30;0.30;;;;;;;2.19;74.62;100175.66;5145600;28;20137;-80
2023/03/11 02:20:15;;;;;;;0.30;0.30;;;;;;;2.24;74.90;100167.03;5144663;28;20050;-80
2023/03/11 02:22:47;;;;;;;0.30;0.30;;;;;;;2.35;74.70;100173.06;5169151;28;20073;-79
2023/03/11 02:25:41;;;;;;;0.40;0.40;;;;;;;2.38;75.26;100170.44;5160487;28;20046;-79
2023/03/11 02:28:14;;;;;;;0.30;0.30;;;;;;;2.42;75.15;100171.28;5144956;28;20065;-79
2023/03/11 02:30:45;;;;;;;0.30;0.30;;;;;;;2.41;74.91;100180.81;5146216;28;20054;-80
2023/03/11 02:33:18;;;;;;;1.55;1.35;;;;;;;2.35;73.66;100181.66;5126344;28;20081;-80
2023/03/11 02:35:48;;;;;;;0.30;0.30;;;;;;;2.33;73.68;100179.97;5127208;28;20065;-79
2023/03/11 02:38:19;;;;;;;0.40;0.40;;;;;;;2.04;73.30;100183.44;5140706;28;20058;-81
2023/03/11 02:40:54;;;;;;;0.40;0.40;;;;;;;2.24;74.11;100183.41;5143723;28;20043;-80
2023/03/11 02:43:45;;;;;;;0.30;0.30;;;;;;;2.17;73.83;100186.88;5144603;28;20038;-80
2023/03/11 02:46:17;;;;;;;0.30;0.30;;;;;;;2.08;73.49;100190.34;5142543;28;20128;-80
2023/03/11 02:48:48;;;;;;;0.63;0.63;;;;;;;2.16;74.45;100191.19;5127071;28;20019;-80
2023/03/11 02:51:19;;;;;;;0.40;0.40;;;;;;;2.12;74.04;100184.28;5125397;28;20039;-80
2023/03/11 02:53:53;;;;;;;0.40;0.40;;;;;;;1.86;73.13;100182.56;5134231;28;20031;-80
2023/03/11 02:56:24;;;;;;;0.30;0.30;;;;;;;2.02;73.82;100182.59;5131075;28;20129;-81
2023/03/11 02:58:54;;;;;;;1.75;0.70;;;;;;;2.14;73.73;100181.72;5130778;28;20287;-81
2023/03/11 03:01:25;;;;;;;0.40;0.40;;;;;;;2.05;74.09;100179.97;5140472;28;20038;-81
2023/03/11 03:03:56;;;;;;;0.60;0.60;;;;;;;2.11;73.63;100182.56;5126482;28;20038;-81
2023/03/11 03:06:27;;;;;;;0.30;0.30;;;;;;;2.11;73.60;100185.16;5127216;28;20465;-80
2023/03/11 03:08:57;;;;;;;0.38;0.38;;;;;;;2.18;73.42;100183.41;5126255;28;20133;-81
2023/03/11 03:11:28;;;;;;;1.08;1.02;;;;;;;2.25;74.10;100192.06;5162174;28;20145;-81
2023/03/11 03:13:59;;;;;;;1.23;1.20;;;;;;;1.98;73.49;100186.91;5159544;28;20121;-81
2023/03/11 03:16:29;;;;;;;0.30;0.30;;;;;;;2.15;74.30;100188.63;5127106;28;20042;-81
2023/03/11 03:18:59;;;;;;;0.40;0.40;;;;;;;2.03;73.76;100192.06;5138486;28;20045;-81
2023/03/11 03:21:30;;;;;;;0.40;0.40;;;;;;;2.18;73.91;100197.25;5157770;28;20081;-81
2023/03/11 03:24:00;;;;;;;0.40;0.40;;;;;;;1.90;72.72;100193.81;5125687;28;20085;-80
2023/03/11 03:26:31;;;;;;;0.40;0.40;;;;;;;2.06;74.26;100199.81;5156912;28;20131;-81
2023/03/11 03:29:02;;;;;;;0.50;0.50;;;;;;;1.85;72.39;100191.22;5128235;28;20438;-81
2023/03/11 03:31:33;;;;;;;2.72;1.17;;;;;;;2.07;73.48;100201.56;5157834;28;20050;-80
2023/03/11 03:34:03;;;;;;;0.38;0.38;;;;;;;2.13;73.63;100206.72;5162361;28;20037;-81
2023/03/11 03:36:33;;;;;;;0.30;0.30;;;;;;;2.07;74.01;100206.72;5139401;28;20046;-81
2023/03/11 03:39:05;;;;;;;0.30;0.30;;;;;;;2.01;73.72;100206.75;5161583;28;20029;-81
2023/03/11 03:41:35;;;;;;;0.60;0.60;;;;;;;2.08;73.19;100213.63;5142723;28;20039;-81
2023/03/11 03:44:05;;;;;;;0.30;0.30;;;;;;;1.95;73.36;100219.66;5131095;28;20022;-81
2023/03/11 03:46:37;;;;;;;0.35;0.35;;;;;;;1.98;73.26;100220.56;5160870;28;20118;-81
2023/03/11 03:49:08;;;;;;;0.40;0.40;;;;;;;1.85;72.09;100226.56;5126490;28;20089;-81
2023/03/11 03:51:38;;;;;;;0.40;0.40;;;;;;;1.68;72.01;100229.13;5159597;28;20034;-81
2023/03/11 03:54:08;;;;;;;0.43;0.43;;;;;;;1.67;73.26;100232.59;5127374;28;20623;-81
2023/03/11 03:56:39;;;;;;;0.30;0.30;;;;;;;1.89;73.09;100239.50;5137595;28;20038;-81
2023/03/11 03:59:09;;;;;;;0.40;0.40;;;;;;;1.93;73.29;100234.34;5119350;28;20038;-81
2023/03/11 04:01:40;;;;;;;1.05;1.05;;;;;;;2.03;73.36;100238.63;5140608;28;20050;-81
2023/03/11 04:04:10;;;;;;;0.50;0.50;;;;;;;1.95;73.33;100242.94;5158580;28;20437;-81
2023/03/11 04:06:41;;;;;;;0.50;0.50;;;;;;;1.94;73.63;100247.28;5143460;28;20117;-81
2023/03/11 04:09:12;;;;;;;0.32;0.32;;;;;;;1.96;73.54;100255.03;5129051;28;20409;-81
2023/03/11 04:11:42;;;;;;;0.88;0.88;;;;;;;1.96;73.18;100255.91;5159840;28;20034;-81
2023/03/11 04:14:13;;;;;;;0.30;0.30;;;;;;;1.93;73.54;100257.63;5140517;28;20537;-82
2023/03/11 04:16:43;;;;;;;0.40;0.40;;;;;;;2.00;73.14;100256.78;5144604;28;20500;-83
2023/03/11 04:19:14;;;;;;;0.52;0.52;;;;;;;1.72;71.22;100256.72;5132820;28;20031;-82
2023/03/11 04:21:44;;;;;;;0.43;0.43;;;;;;;1.79;73.00;100258.44;5169487;28;20046;-81
2023/03/11 04:24:15;;;;;;;0.40;0.40;;;;;;;1.51;71.38;100268.75;5145157;28;20052;-81
2023/03/11 04:26:45;;;;;;;0.40;0.40;;;;;;;1.77;73.25;100262.78;5143343;28;20043;-81
2023/03/11 04:29:15;;;;;;;0.40;0.40;;;;;;;1.81;73.98;100261.06;5140397;28;20030;-80
2023/03/11 04:31:46;;;;;;;0.65;0.65;;;;;;;1.73;72.73;100268.81;5145613;28;20070;-81
2023/03/11 04:34:16;;;;;;;0.30;0.30;;;;;;;1.62;71.25;100266.19;5155846;28;20066;-81
2023/03/11 04:36:51;;;;;;;0.40;0.40;;;;;;;1.66;73.45;100267.06;5133053;28;20114;-80
2023/03/11 04:39:21;;;;;;;0.30;0.30;;;;;;;1.75;72.80;100263.63;5145136;28;20030;-82
2023/03/11 04:41:52;;;;;;;0.30;0.30;;;;;;;1.75;73.00;100276.56;5151428;28;20105;-81
2023/03/11 04:44:22;;;;;;;0.40;0.40;;;;;;;1.75;73.29;100277.44;5150780;28;20262;-80
2023/03/11 04:46:53;;;;;;;0.65;0.65;;;;;;;1.79;73.02;100279.16;5139471;28;20039;-80
2023/03/11 04:49:23;;;;;;;0.35;0.35;;;;;;;1.79;73.03;100284.31;5145375;28;20037;-81
2023/03/11 04:51:53;;;;;;;0.45;0.45;;;;;;;1.80;72.90;100287.78;5130098;28;20100;-82
2023/03/11 04:54:24;;;;;;;0.40;0.40;;;;;;;1.91;73.12;100285.22;5160327;28;20617;-81
2023/03/11 04:56:54;;;;;;;0.40;0.40;;;;;;;1.89;73.22;100291.25;5128451;28;20082;-80
2023/03/11 04:59:26;;;;;;;0.40;0.40;;;;;;;1.75;72.53;100290.38;5144922;28;20688;-82
2023/03/11 05:01:56;;;;;;;0.40;0.40;;;;;;;1.40;71.68;100292.00;5143256;28;20038;-80
2023/03/11 05:04:27;;;;;;;0.70;0.70;;;;;;;1.40;72.65;100285.94;5141702;28;20105;-79
2023/03/11 05:06:57;;;;;;;0.98;0.95;;;;;;;1.62;73.47;100293.75;5143935;28;20031;-79
2023/03/11 05:09:28;;;;;;;0.40;0.40;;;;;;;1.71;73.41;100293.78;5148799;28;20035;-82
2023/03/11 05:11:58;;;;;;;0.30;0.30;;;;;;;1.37;71.71;100294.56;5142470;28;20050;-80
2023/03/11 05:14:29;;;;;;;1.13;1.08;;;;;;;1.66;72.88;100291.19;5130997;28;20038;-79
2023/03/11 05:16:59;;;;;;;0.60;0.60;;;;;;;1.72;73.48;100296.41;5137632;28;20078;-80
2023/03/11 05:19:30;;;;;;;2.25;2.15;;;;;;;1.47;72.82;100300.63;5130754;28;20023;-80
2023/03/11 05:22:02;;;;;;;2.15;2.05;;;;;;;1.54;73.40;100306.69;5125887;28;20046;-80
2023/03/11 05:24:32;;;;;;;0.30;0.30;;;;;;;1.26;71.94;100303.97;5144513;28;21280;-82
2023/03/11 05:27:04;;;;;;;1.23;1.10;;;;;;;1.48;73.39;100304.09;5125715;28;20026;-80
2023/03/11 05:29:35;;;;;;;0.47;0.47;;;;;;;1.62;73.22;100310.16;5161283;28;20042;-80
2023/03/11 05:32:05;;;;;;;0.43;0.43;;;;;;;1.69;73.18;100309.31;5158233;28;20405;-80
2023/03/11 05:34:36;;;;;;;0.30;0.30;;;;;;;1.42;72.45;100310.09;5138180;28;20034;-79
2023/03/11 05:37:07;;;;;;;0.40;0.40;;;;;;;1.55;73.04;100306.69;5146046;28;20159;-80
2023/03/11 05:39:38;;;;;;;0.30;0.30;;;;;;;1.64;73.00;100315.31;5143873;28;20062;-81
2023/03/11 05:42:08;;;;;;;0.38;0.38;;;;;;;1.71;72.87;100319.66;5129797;28;20037;-82
2023/03/11 05:44:40;;;;;;;0.40;0.40;;;;;;;1.77;72.98;100324.00;5158086;28;20038;-82
2023/03/11 05:47:10;;;;;;;0.35;0.35;;;;;;;1.81;73.30;100321.41;5146997;28;20074;-82
2023/03/11 05:49:41;;;;;;;0.40;0.40;;;;;;;1.86;72.99;100322.28;5143936;28;20481;-80
2023/03/11 05:52:11;;;;;;;0.40;0.40;;;;;;;1.83;72.82;100324.88;5142865;28;20566;-81
2023/03/11 05:54:42;;;;;;;1.45;1.17;;;;;;;1.83;72.76;100322.28;5151590;28;20035;-80
2023/03/11 05:57:12;;;;;;;0.40;0.40;;;;;;;1.84;73.02;100323.13;5141993;28;20034;-82
2023/03/11 05:59:43;;;;;;;0.73;0.73;;;;;;;1.91;73.01;100329.19;5146912;28;20097;-80
2023/03/11 06:02:13;;;;;;;0.40;0.40;;;;;;;1.92;72.94;100325.75;5141376;28;20035;-81
2023/03/11 06:04:44;;;;;;;0.80;0.80;;;;;;;1.87;73.42;100329.19;5130289;28;20139;-81
2023/03/11 06:07:15;;;;;;;4.60;2.55;;;;;;;1.86;73.15;100340.38;5144586;28;20342;-82
2023/03/11 06:09:45;;;;;;;0.30;0.30;;;;;;;1.96;73.20;100335.25;5146657;28;20548;-80
2023/03/11 06:12:15;;;;;;;1.58;0.88;;;;;;;1.97;73.52;100347.31;5144921;28;20037;-80
2023/03/11 06:14:46;;;;;;;7.88;1.40;;;;;;;1.92;74.01;100352.47;5160274;28;20045;-81
2023/03/11 06:17:16;;;;;;;6.53;1.75;;;;;;;1.99;73.49;100358.53;5128824;28;20045;-81
2023/03/11 06:19:47;;;;;;;0.30;0.30;;;;;;;1.94;73.52;100365.44;5154956;28;20041;-80
2023/03/11 06:22:17;;;;;;;0.88;0.88;;;;;;;1.97;73.86;100365.44;5134169;28;20030;-80
2023/03/11 06:24:48;;;;;;;0.75;0.75;;;;;;;1.95;73.04;100355.09;5157611;28;20517;-80
2023/03/11 06:27:18;;;;;;;2.08;1.95;;;;;;;2.00;73.40;100355.94;5139892;28;20030;-81
2023/03/11 06:29:53;;;;;;;0.60;0.60;;;;;;;1.97;73.22;100355.97;5140025;28;20465;-81
2023/03/11 06:32:23;;;;;;;0.73;0.73;;;;;;;1.86;73.23;100362.81;5126610;28;20284;-79
2023/03/11 06:34:54;;;;;;;1.85;1.75;;;;;;;1.99;72.96;100363.72;5142683;28;20086;-80
2023/03/11 06:37:24;;;;;;;0.40;0.40;;;;;;;1.94;74.02;100371.47;5144322;28;20104;-79
2023/03/11 06:39:55;;;;;;;0.40;0.40;;;;;;;2.03;73.30;100365.44;5129721;28;20106;-80
2023/03/11 06:42:26;;;;;;;0.30;0.30;;;;;;;1.92;73.58;100374.91;5144162;28;20035;-81
2023/03/11 06:44:56;;;;;;;0.50;0.50;;;;;;;2.03;73.63;100373.19;5149279;28;20042;-81
2023/03/11 06:47:27;;;;;;;0.38;0.38;;;;;;;1.71;73.47;100379.16;5138530;28;20046;-81
2023/03/11 06:49:57;;;;;;;0.75;0.75;;;;;;;1.84;73.94;100386.13;5134381;28;20059;-81
2023/03/11 06:52:28;;;;;;;0.50;0.50;;;;;;;2.03;73.59;100391.31;5125895;28;20119;-81
2023/03/11 06:54:58;;;;;;;0.40;0.40;;;;;;;1.91;73.88;100388.72;5122313;28;20042;-84
2023/03/11 06:57:30;;;;;;;0.40;0.40;;;;;;;1.94;74.09;100396.50;5157206;28;20035;-78
2023/03/11 07:00:00;;;;;;;2.25;1.48;;;;;;;1.86;73.74;100399.91;5127428;28;20054;-79
2023/03/11 07:02:31;;;;;;;1.65;1.55;;;;;;;1.93;73.41;100415.47;5159997;28;20022;-78
2023/03/11 07:05:01;;;;;;;0.47;0.47;;;;;;;2.04;73.71;100418.94;5137534;28;20047;-78
2023/03/11 07:07:32;;;;;;;0.43;0.43;;;;;;;1.95;73.89;100424.06;5143004;28;20527;-78
2023/03/11 07:10:03;;;;;;;0.70;0.70;;;;;;;2.04;74.00;100429.28;5151568;28;20059;-77
2023/03/11 07:12:33;;;;;;;0.40;0.40;;;;;;;1.90;73.72;100437.03;5150835;28;20027;-81
2023/03/11 07:15:04;;;;;;;0.30;0.30;;;;;;;1.97;74.05;100433.59;5173178;28;20106;-81
2023/03/11 07:17:35;;;;;;;0.40;0.40;;;;;;;2.08;73.78;100425.84;5146147;28;20031;-80
2023/03/11 07:20:13;;;;;;;9.65;3.10;;;;;;;2.00;74.18;100437.91;5141111;28;20049;-80
2023/03/11 07:22:49;;;;;;;0.80;0.80;;;;;;;2.06;73.82;100448.28;5141974;28;20493;-81
2023/03/11 07:25:19;;;;;;;0.50;0.50;;;;;;;2.09;74.10;100450.00;5158023;28;20039;-81
2023/03/11 07:27:50;;;;;;;0.40;0.40;;;;;;;2.11;74.15;100459.50;5140086;28;20125;-81
2023/03/11 07:30:20;;;;;;;0.35;0.35;;;;;;;2.13;73.89;100460.38;5141179;28;20046;-80
2023/03/11 07:32:51;;;;;;;0.40;0.40;;;;;;;2.14;73.87;100464.69;5129694;28;20027;-80
2023/03/11 07:35:21;;;;;;;0.47;0.47;;;;;;;2.01;74.46;100461.19;5140783;28;20042;-80
2023/03/11 07:37:52;;;;;;;0.40;0.40;;;;;;;1.99;74.20;100464.66;5142865;28;20637;-81
2023/03/11 07:40:22;;;;;;;3.15;1.95;;;;;;;2.16;74.40;100464.69;5145413;28;20077;-80
2023/03/11 07:42:52;;;;;;;1.15;1.15;;;;;;;2.17;74.28;100475.06;5152576;28;20217;-81
2023/03/11 07:45:23;;;;;;;0.55;0.55;;;;;;;2.18;74.34;100484.56;5138102;28;20038;-81
2023/03/11 07:47:53;;;;;;;0.40;0.40;;;;;;;2.14;74.31;100482.81;5134746;28;20588;-81
2023/03/11 07:50:24;;;;;;;0.30;0.30;;;;;;;2.17;74.52;100487.13;5122624;28;20255;-81
2023/03/11 07:52:54;;;;;;;0.30;0.30;;;;;;;2.05;74.04;100493.13;5143760;28;20122;-78
2023/03/11 07:55:25;;;;;;;0.47;0.47;;;;;;;2.10;73.90;100501.78;5145628;28;20081;-78
2023/03/11 07:57:55;;;;;;;0.30;0.30;;;;;;;2.08;73.81;100498.34;5146942;28;20049;-80
2023/03/11 08:00:26;;;;;;;0.40;0.40;;;;;;;2.16;73.89;100496.63;5163814;28;20046;-79
2023/03/11 08:02:56;;;;;;;2.50;1.95;;;;;;;2.11;73.80;100493.16;5154459;28;20042;-80
2023/03/11 08:05:26;;;;;;;0.30;0.30;;;;;;;2.10;73.42;100491.44;5176089;28;20067;-79
2023/03/11 08:07:57;;;;;;;0.30;0.30;;;;;;;2.12;73.94;100501.78;5148806;28;20395;-80
2023/03/11 08:10:27;;;;;;;0.55;0.55;;;;;;;2.09;73.73;100509.53;5154611;28;20052;-79
2023/03/11 08:12:58;;;;;;;0.30;0.30;;;;;;;2.13;74.54;100506.97;5144445;28;20038;-79
2023/03/11 08:15:28;;;;;;;1.75;1.10;;;;;;;2.18;73.89;100510.47;5126003;28;20117;-79
2023/03/11 08:17:58;;;;;;;0.85;0.85;;;;;;;2.17;73.95;100511.31;5140080;28;20030;-80
2023/03/11 08:20:29;;;;;;;0.40;0.40;;;;;;;2.27;74.42;100508.75;5148260;28;20069;-79
2023/03/11 08:22:59;;;;;;;0.38;0.38;;;;;;;2.28;74.72;100511.34;5131069;28;20038;-81
2023/03/11 08:25:30;;;;;;;0.35;0.35;;;;;;;2.28;73.36;100513.06;5155593;28;20121;-78
2023/03/11 08:28:00;;;;;;;0.50;0.50;;;;;;;2.08;72.77;100513.84;5139691;28;20478;-78
2023/03/11 08:30:31;;;;;;;0.38;0.38;;;;;;;1.99;73.20;100509.50;5159872;28;20072;-78
2023/03/11 08:33:01;;;;;;;0.30;0.30;;;;;;;2.11;73.43;100519.03;5152132;28;20148;-79
2023/03/11 08:35:32;;;;;;;0.40;0.40;;;;;;;2.13;72.67;100517.31;5147271;28;20134;-78
2023/03/11 08:38:03;;;;;;;0.47;0.47;;;;;;;2.11;73.25;100520.75;5145320;28;20092;-78
2023/03/11 08:40:33;;;;;;;0.65;0.65;;;;;;;2.09;72.70;100517.31;5144718;28;20043;-84
2023/03/11 08:43:04;;;;;;;1.38;1.30;;;;;;;2.16;73.08;100525.13;5165241;28;20038;-79
2023/03/11 08:45:34;;;;;;;0.30;0.30;;;;;;;2.29;73.06;100530.31;5128702;28;20050;-79
2023/03/11 08:48:05;;;;;;;0.40;0.40;;;;;;;2.23;70.83;100532.91;5144220;28;20048;-80
2023/03/11 08:50:35;;;;;;;0.52;0.52;;;;;;;2.31;71.39;100531.19;5145098;28;20045;-79
2023/03/11 08:53:07;;;;;;;1.02;1.02;;;;;;;2.35;72.58;100527.78;5131025;28;20039;-80
2023/03/11 08:55:38;;;;;;;0.60;0.60;;;;;;;2.28;71.50;100531.19;5143375;28;20089;-80
2023/03/11 08:58:08;;;;;;;0.30;0.30;;;;;;;2.38;72.53;100529.50;5161429;28;20031;-82
2023/03/11 09:00:38;;;;;;;0.50;0.50;;;;;;;2.45;72.78;100532.09;5163087;28;20034;-81
2023/03/11 09:03:09;;;;;;;1.05;0.98;;;;;;;2.47;71.15;100540.75;5131623;28;20061;-80
2023/03/11 09:05:40;;;;;;;0.60;0.60;;;;;;;2.38;71.48;100535.53;5130844;28;20034;-81
2023/03/11 09:08:10;;;;;;;0.40;0.40;;;;;;;2.34;70.71;100523.47;5133247;28;20038;-81
2023/03/11 09:10:41;;;;;;;0.40;0.40;;;;;;;2.49;71.95;100518.31;5151086;28;20088;-81
2023/03/11 09:13:11;;;;;;;0.30;0.30;;;;;;;2.51;71.85;100516.63;5140549;28;20034;-80
2023/03/11 09:15:41;;;;;;;0.30;0.30;;;;;;;2.48;71.04;100521.78;5141027;28;20026;-81
2023/03/11 09:18:13;;;;;;;0.43;0.43;;;;;;;2.55;70.25;100521.78;5157218;28;20039;-81
2023/03/11 09:20:44;;;;;;;0.77;0.77;;;;;;;2.67;71.14;100521.81;5134361;28;20046;-80
2023/03/11 09:23:16;;;;;;;0.40;0.40;;;;;;;2.62;71.58;100519.22;5129420;28;20035;-82
2023/03/11 09:25:46;;;;;;;0.40;0.40;;;;;;;2.68;70.07;100526.16;5163201;28;20105;-84
2023/03/11 09:28:17;;;;;;;0.30;0.30;;;;;;;2.72;70.07;100527.03;5133364;28;20537;-83
2023/03/11 09:30:47;;;;;;;0.43;0.43;;;;;;;2.67;69.31;100519.22;5176736;28;20050;-82
2023/03/11 09:33:18;;;;;;;0.30;0.30;;;;;;;2.71;69.10;100520.09;5152513;28;20034;-81
2023/03/11 09:35:48;;;;;;;0.40;0.40;;;;;;;2.85;70.41;100527.91;5129564;28;20437;-82
2023/03/11 09:38:19;;;;;;;0.73;0.73;;;;;;;2.66;63.56;100533.91;5162702;28;20121;-82
2023/03/11 09:41:01;;;;;;;0.30;0.30;;;;;;;2.86;69.41;100537.38;5140467;28;20663;-82
2023/03/11 09:43:46;;;;;;;0.30;0.30;;;;;;;2.61;64.77;100534.75;5141976;28;20046;-82
2023/03/11 09:46:35;;;;;;;1.05;1.05;;;;;;;2.81;66.21;100534.81;5134993;28;20043;-79
2023/03/11 09:49:21;;;;;;;0.30;0.30;;;;;;;2.75;66.08;100543.44;5168000;28;20050;-81
2023/03/11 09:52:02;;;;;;;0.35;0.35;;;;;;;2.87;66.59;100549.47;5154981;28;20046;-81
2023/03/11 09:54:37;;;;;;;0.38;0.38;;;;;;;2.87;64.04;100550.38;5153700;28;20045;-81
2023/03/11 09:57:13;;;;;;;1.00;1.00;;;;;;;2.88;63.71;100546.03;5176870;28;20807;-81
2023/03/11 09:59:45;;;;;;;0.30;0.30;;;;;;;2.81;60.54;100553.81;5157528;28;20037;-80
2023/03/11 10:02:25;;;;;;;9.65;1.58;;;;;;;3.02;63.34;100546.91;5156247;28;20541;-80
2023/03/11 10:05:22;;;;;;;0.40;0.40;;;;;;;3.06;65.62;100548.66;5145763;28;20043;-79
2023/03/11 10:08:10;;;;;;;3.53;3.00;;;;;;;3.25;66.47;100553.88;5164297;28;20061;-82
2023/03/11 10:10:46;;;;;;;0.45;0.45;;;;;;;3.23;61.86;100560.78;5150214;28;20101;-81
2023/03/11 10:13:28;;;;;;;0.30;0.30;;;;;;;3.24;63.31;100565.09;5145756;28;20031;-80
2023/03/11 10:16:10;;;;;;;0.65;0.65;;;;;;;3.35;65.06;100575.47;5146145;28;20034;-81
2023/03/11 10:19:02;;;;;;;0.40;0.40;;;;;;;3.41;61.18;100573.75;5142764;28;20031;-83
2023/03/11 10:21:54;;;;;;;0.40;0.40;;;;;;;3.53;61.71;100583.25;5162116;28;20530;-83
2023/03/11 10:24:28;;;;;;;0.30;0.30;;;;;;;3.53;63.07;100580.66;5147692;28;20401;-82
2023/03/11 10:27:01;;;;;;;;;;;;;;;3.54;61.79;100581.50;5170174;28;20038;-83
2023/03/11 10:29:43;;;;;;;0.30;0.30;;;;;;;3.74;61.98;100584.97;5136147;28;20373;-80
2023/03/11 10:32:13;;;;;;;0.30;0.30;;;;;;;3.68;62.86;100586.72;5163353;28;20473;-81
2023/03/11 10:34:53;;;;;;;0.30;0.30;;;;;;;3.66;58.74;100584.13;5151294;28;20074;-82
2023/03/11 10:37:28;;;;;;;0.40;0.40;;;;;;;3.81;62.85;100579.78;5143503;28;20042;-82
2023/03/11 10:40:14;;;;;;;0.40;0.40;;;;;;;3.65;56.32;100579.78;5150078;28;20704;-81
2023/03/11 10:42:45;;;;;;;0.30;0.30;;;;;;;3.64;58.62;100583.25;5166350;28;20034;-79
2023/03/11 10:45:16;;;;;;;0.40;0.40;;;;;;;3.74;62.37;100578.91;5150071;28;20125;-80
2023/03/11 10:47:46;;;;;;;0.30;0.30;;;;;;;3.77;61.75;100571.97;5146855;28;20114;-80
2023/03/11 10:50:18;;;;;;;0.30;0.30;;;;;;;3.86;62.91;100570.22;5128804;28;20047;-80
2023/03/11 10:53:13;;;;;;;1.67;1.33;;;;;;;3.88;58.41;100571.09;5142365;28;20031;-82
2023/03/11 10:55:45;;;;;;;0.30;0.30;;;;;;;3.94;56.37;100576.28;5120957;28;20043;-81
2023/03/11 10:58:25;;;;;;;0.55;0.55;;;;;;;3.92;55.09;100570.25;5130348;28;20714;-81
2023/03/11 11:01:16;;;;;;;0.30;0.30;;;;;;;4.01;54.03;100567.59;5141947;28;20505;-81
2023/03/11 11:03:49;;;;;;;0.50;0.50;;;;;;;4.13;57.63;100561.53;5128728;28;20034;-81
2023/03/11 11:06:29;;;;;;;0.30;0.30;;;;;;;4.18;57.72;100562.38;5148526;28;20065;-81
2023/03/11 11:09:05;;;;;;;0.40;0.40;;;;;;;4.22;56.80;100565.81;5146130;28;20712;-80
2023/03/11 11:11:38;;;;;;;0.32;0.32;;;;;;;4.27;54.63;100569.25;5134165;28;20046;-81
2023/03/11 11:14:09;;;;;;;0.30;0.30;;;;;;;4.32;57.11;100567.53;5125463;28;20093;-81
2023/03/11 11:16:39;;;;;;;0.30;0.30;;;;;;;4.30;53.07;100574.44;5146353;28;20031;-81
2023/03/11 11:19:14;;;;;;;0.35;0.35;;;;;;;4.46;54.67;100590.88;5140960;28;20031;-81
2023/03/11 11:21:48;;;;;;;0.57;0.57;;;;;;;4.43;55.57;100587.38;5142901;28;20038;-82
2023/03/11 11:24:27;;;;;;;0.30;0.30;;;;;;;4.56;57.03;100597.72;5159095;28;20056;-81
2023/03/11 11:27:24;;;;;;;0.30;0.30;;;;;;;4.52;52.93;100590.84;5159964;28;20050;-82
2023/03/11 11:30:07;;;;;;;2.08;0.90;;;;;;;4.61;54.69;100597.72;5137163;28;20055;-82
2023/03/11 11:32:38;;;;;;;0.30;0.30;;;;;;;4.58;55.07;100597.75;5141393;28;20022;-82
2023/03/11 11:35:15;;;;;;;0.40;0.40;;;;;;;4.45;52.34;100596.94;5126250;28;21763;-83
2023/03/11 11:37:53;;;;;;;3.53;1.17;;;;;;;4.63;53.69;100588.19;5158821;28;20125;-83
2023/03/11 11:40:25;;;;;;;0.43;0.43;;;;;;;4.69;55.18;100587.28;5140433;28;20394;-82
2023/03/11 11:43:35;;;;;;;0.30;0.30;;;;;;;4.72;57.16;100582.94;5129062;28;20050;-84
2023/03/11 11:46:15;;;;;;;1.55;0.85;;;;;;;4.83;57.37;100579.44;5129326;28;20042;-80
2023/03/11 11:48:54;;;;;;;0.30;0.30;;;;;;;4.62;52.32;100580.41;5134548;28;20026;-81
2023/03/11 11:51:55;;;;;;;0.30;0.30;;;;;;;4.83;54.97;100576.81;5141423;28;20043;-81
2023/03/11 11:54:32;;;;;;;0.30;0.30;;;;;;;4.97;55.81;100577.59;5122885;28;20066;-81
2023/03/11 11:57:17;;;;;;;0.30;0.30;;;;;;;5.16;53.79;100580.94;5122812;28;20046;-80
2023/03/11 11:59:49;;;;;;;0.20;0.20;;;;;;;5.27;53.51;100585.19;5140612;28;20106;-80